createdAt,value
2018-03-28T00:02:19.958Z,8.30
2018-03-28T00:04:49.817Z,7.75
2018-03-28T00:07:19.007Z,8.65
2018-03-28T00:09:48.890Z,9.07
2018-03-28T00:12:17.966Z,9.55
2018-03-28T00:14:47.154Z,9.00
2018-03-28T00:17:17.015Z,9.35
2018-03-28T00:19:46.082Z,7.95
2018-03-28T00:22:15.229Z,8.63
2018-03-28T00:24:44.299Z,8.70
2018-03-28T00:27:13.402Z,9.15
2018-03-28T00:29:42.490Z,8.98
2018-03-28T00:32:11.561Z,8.85
2018-03-28T00:34:41.454Z,8.15
2018-03-28T00:37:11.343Z,8.82
2018-03-28T00:39:40.657Z,8.15
2018-03-28T00:42:09.721Z,9.32
2018-03-28T00:44:39.577Z,9.82
2018-03-28T00:47:09.848Z,9.95
2018-03-28T00:49:39.685Z,10.13
2018-03-28T00:52:08.775Z,9.05
2018-03-28T00:54:38.670Z,8.32
2018-03-28T00:57:07.735Z,10.30
2018-03-28T00:59:36.814Z,10.57
2018-03-28T01:02:05.899Z,9.40
2018-03-28T01:04:34.991Z,9.63
2018-03-28T01:07:04.825Z,9.43
2018-03-28T01:09:34.653Z,9.50
2018-03-28T01:12:04.550Z,10.00
2018-03-28T01:14:33.633Z,10.98
2018-03-28T01:17:02.762Z,10.60
2018-03-28T01:19:31.892Z,10.50
2018-03-28T01:22:00.967Z,10.10
2018-03-28T01:24:30.133Z,11.02
2018-03-28T01:26:59.970Z,9.95
2018-03-28T01:29:29.889Z,11.00
2018-03-28T01:31:59.730Z,10.73
2018-03-28T01:34:28.838Z,11.10
2018-03-28T01:36:58.673Z,9.65
2018-03-28T01:39:27.763Z,9.80
2018-03-28T01:41:57.598Z,10.73
2018-03-28T01:44:27.567Z,10.73
2018-03-28T01:46:56.826Z,11.40
2018-03-28T01:49:26.678Z,10.23
2018-03-28T01:51:56.561Z,9.93
2018-03-28T01:54:25.646Z,10.60
2018-03-28T01:56:54.778Z,11.77
2018-03-28T01:59:23.849Z,12.45
2018-03-28T02:01:52.994Z,12.10
2018-03-28T02:04:22.069Z,11.77
2018-03-28T02:06:51.153Z,11.70
2018-03-28T02:09:20.994Z,9.70
2018-03-28T02:11:50.864Z,10.82
2018-03-28T02:14:19.927Z,13.27
2018-03-28T02:16:49.768Z,11.65
2018-03-28T02:19:18.846Z,11.50
2018-03-28T02:21:47.927Z,11.98
2018-03-28T02:24:17.002Z,12.98
2018-03-28T02:26:46.617Z,13.00
2018-03-28T02:29:15.766Z,12.98
2018-03-28T02:31:44.847Z,13.32
2018-03-28T02:34:13.958Z,13.27
2018-03-28T02:36:43.060Z,12.15
2018-03-28T02:39:12.236Z,14.02
2018-03-28T02:41:41.312Z,13.88
2018-03-28T02:44:10.396Z,13.60
2018-03-28T02:46:39.470Z,13.50
2018-03-28T02:49:08.550Z,13.98
2018-03-28T02:51:37.683Z,15.13
2018-03-28T02:54:06.855Z,14.23
2018-03-28T02:56:35.946Z,14.95
2018-03-28T02:59:05.955Z,15.77
2018-03-28T03:01:35.830Z,15.15
2018-03-28T03:04:04.907Z,15.10
2018-03-28T03:06:34.862Z,15.35
2018-03-28T03:09:03.926Z,15.00
2018-03-28T03:11:33.085Z,15.70
2018-03-28T03:14:02.162Z,15.30
2018-03-28T03:16:32.039Z,15.82
2018-03-28T03:19:01.109Z,17.15
2018-03-28T03:21:30.944Z,15.48
2018-03-28T03:24:00.015Z,16.92
2018-03-28T03:26:29.117Z,17.20
2018-03-28T03:28:58.442Z,18.75
2018-03-28T03:31:27.586Z,17.95
2018-03-28T03:33:56.662Z,17.92
2018-03-28T03:36:25.767Z,18.77
2018-03-28T03:38:54.870Z,18.17
2018-03-28T03:41:23.941Z,18.48
2018-03-28T03:43:53.017Z,19.05
2018-03-28T03:46:22.909Z,19.05
2018-03-28T03:48:51.978Z,18.30
2018-03-28T03:51:21.045Z,19.92
2018-03-28T03:53:50.146Z,20.08
2018-03-28T03:56:19.222Z,22.20
2018-03-28T03:58:48.397Z,20.42
2018-03-28T04:01:17.448Z,20.45
2018-03-28T04:03:46.523Z,20.40
2018-03-28T04:06:16.370Z,21.95
2018-03-28T04:08:45.474Z,20.98
2018-03-28T04:11:14.739Z,22.37
2018-03-28T04:13:43.823Z,21.58
2018-03-28T04:16:12.946Z,21.62
2018-03-28T04:18:42.040Z,21.35
2018-03-28T04:21:11.166Z,20.67
2018-03-28T04:23:40.243Z,23.15
2018-03-28T04:26:09.314Z,21.55
2018-03-28T04:28:38.431Z,21.77
2018-03-28T04:31:07.506Z,22.33
2018-03-28T04:33:36.580Z,22.67
2018-03-28T04:36:05.650Z,23.02
2018-03-28T04:38:34.728Z,23.48
2018-03-28T04:41:03.806Z,24.17
2018-03-28T04:43:32.925Z,22.67
2018-03-28T04:46:02.003Z,24.45
2018-03-28T04:48:31.074Z,22.40
2018-03-28T04:51:00.146Z,22.75
2018-03-28T04:53:29.213Z,24.20
2018-03-28T04:55:58.290Z,23.52
2018-03-28T04:58:27.430Z,23.87
2018-03-28T05:00:56.506Z,24.95
2018-03-28T05:03:25.579Z,25.02
2018-03-28T05:05:55.538Z,24.35
2018-03-28T05:08:24.610Z,22.80
2018-03-28T05:10:53.695Z,25.40
2018-03-28T05:13:22.767Z,25.12
2018-03-28T05:15:52.091Z,24.48
2018-03-28T05:18:21.166Z,24.30
2018-03-28T05:20:51.026Z,24.58
2018-03-28T05:23:20.136Z,25.37
2018-03-28T05:25:49.211Z,24.65
2018-03-28T05:28:19.050Z,26.58
2018-03-28T05:30:48.885Z,26.42
2018-03-28T05:33:17.957Z,25.00
2018-03-28T05:35:47.083Z,24.83
2018-03-28T05:38:17.047Z,26.37
2018-03-28T05:40:46.120Z,27.17
2018-03-28T05:43:15.962Z,26.05
2018-03-28T05:45:45.802Z,27.83
2018-03-28T05:48:14.947Z,28.38
2018-03-28T05:50:44.066Z,28.33
2018-03-28T05:53:13.135Z,28.87
2018-03-28T05:55:42.209Z,29.60
2018-03-28T05:58:11.367Z,26.62
2018-03-28T06:00:40.454Z,28.98
2018-03-28T06:03:10.405Z,30.25
2018-03-28T06:05:39.475Z,30.00
2018-03-28T06:08:08.546Z,31.75
2018-03-28T06:10:37.615Z,31.83
2018-03-28T06:13:07.453Z,29.95
2018-03-28T06:15:36.602Z,31.98
2018-03-28T06:18:05.681Z,32.90
2018-03-28T06:20:34.757Z,32.38
2018-03-28T06:23:04.602Z,31.95
2018-03-28T06:25:33.682Z,32.33
2018-03-28T06:28:02.754Z,31.83
2018-03-28T06:30:31.890Z,35.40
2018-03-28T06:33:00.965Z,32.92
2018-03-28T06:35:30.033Z,34.00
2018-03-28T06:37:59.164Z,32.90
2018-03-28T06:40:28.276Z,34.00
2018-03-28T06:42:57.402Z,35.63
2018-03-28T06:45:26.479Z,35.78
2018-03-28T06:47:56.314Z,34.35
2018-03-28T06:50:26.151Z,35.50
2018-03-28T06:52:56.041Z,34.17
2018-03-28T06:55:25.150Z,37.33
2018-03-28T06:57:55.724Z,36.47
2018-03-28T07:00:25.561Z,35.28
2018-03-28T07:02:55.434Z,35.97
2018-03-28T07:05:24.532Z,36.78
2018-03-28T07:07:53.614Z,35.35
2018-03-28T07:10:22.689Z,35.42
2018-03-28T07:12:51.763Z,36.72
2018-03-28T07:15:20.838Z,38.20
2018-03-28T07:17:50.699Z,37.08
2018-03-28T07:20:19.766Z,37.58
2018-03-28T07:22:49.837Z,38.53
2018-03-28T07:25:18.902Z,39.50
2018-03-28T07:27:48.766Z,37.85
2018-03-28T07:30:17.843Z,39.85
2018-03-28T07:32:47.741Z,40.22
2018-03-28T07:35:16.853Z,41.85
2018-03-28T07:37:45.922Z,40.08
2018-03-28T07:40:14.997Z,41.72
2018-03-28T07:42:44.842Z,40.30
2018-03-28T07:45:14.677Z,39.38
2018-03-28T07:47:43.752Z,42.05
2018-03-28T07:50:12.885Z,42.65
2018-03-28T07:52:42.722Z,41.47
2018-03-28T07:55:12.065Z,41.65
2018-03-28T07:57:41.166Z,39.53
2018-03-28T08:00:10.275Z,41.42
2018-03-28T08:02:39.345Z,40.55
2018-03-28T08:05:08.417Z,41.37
2018-03-28T08:07:37.526Z,42.55
2018-03-28T08:10:06.592Z,40.30
2018-03-28T08:12:36.486Z,40.38
2018-03-28T08:15:05.727Z,39.20
2018-03-28T08:17:35.585Z,42.60
2018-03-28T08:20:04.717Z,40.45
2018-03-28T08:22:33.810Z,43.03
2018-03-28T08:25:02.931Z,41.45
2018-03-28T08:27:32.001Z,41.05
2018-03-28T08:30:01.853Z,45.12
2018-03-28T08:32:30.925Z,45.00
2018-03-28T08:35:00.011Z,45.33
2018-03-28T08:37:29.082Z,44.35
2018-03-28T08:39:58.157Z,44.67
2018-03-28T08:42:28.040Z,45.83
2018-03-28T08:44:57.885Z,46.75
2018-03-28T08:47:27.014Z,44.72
2018-03-28T08:49:56.158Z,46.30
2018-03-28T08:52:25.224Z,45.47
2018-03-28T08:54:54.297Z,47.85
2018-03-28T08:57:23.383Z,48.17
2018-03-28T08:59:52.466Z,45.88
2018-03-28T09:02:21.618Z,48.65
2018-03-28T09:04:50.702Z,47.88
2018-03-28T09:07:20.554Z,50.33
2018-03-28T09:09:49.630Z,46.63
2018-03-28T09:12:18.712Z,48.38
2018-03-28T09:14:48.614Z,46.05
2018-03-28T09:17:17.762Z,48.30
2018-03-28T09:19:46.922Z,48.70
2018-03-28T09:22:16.897Z,47.70
2018-03-28T09:24:45.982Z,46.72
2018-03-28T09:27:15.057Z,48.78
2018-03-28T09:29:44.911Z,47.53
2018-03-28T09:32:14.045Z,45.12
2018-03-28T09:34:43.551Z,46.65
2018-03-28T09:37:12.695Z,44.75
2018-03-28T09:39:41.770Z,46.90
2018-03-28T09:42:11.116Z,47.33
2018-03-28T09:44:40.193Z,43.45
2018-03-28T09:47:09.327Z,44.53
2018-03-28T09:49:38.402Z,45.95
2018-03-28T09:52:07.480Z,46.45
2018-03-28T09:54:37.378Z,46.72
2018-03-28T09:57:06.566Z,48.67
2018-03-28T09:59:35.684Z,45.97
2018-03-28T10:02:10.679Z,44.88
2018-03-28T10:04:45.361Z,45.47
2018-03-28T10:07:14.435Z,43.53
2018-03-28T10:09:44.362Z,42.88
2018-03-28T10:12:14.193Z,42.35
2018-03-28T10:14:44.026Z,45.42
2018-03-28T10:17:13.862Z,45.55
2018-03-28T10:19:42.939Z,43.83
2018-03-28T10:22:12.014Z,44.72
2018-03-28T10:24:41.087Z,42.55
2018-03-28T10:27:10.926Z,44.40
2018-03-28T10:29:39.993Z,45.88
2018-03-28T10:32:09.069Z,43.28
2018-03-28T10:34:38.138Z,41.70
2018-03-28T10:37:07.978Z,48.28
2018-03-28T10:39:37.778Z,42.70
2018-03-28T10:42:06.883Z,44.70
2018-03-28T10:44:35.951Z,43.95
2018-03-28T10:47:05.021Z,42.67
2018-03-28T10:49:35.078Z,42.67
2018-03-28T10:52:04.146Z,40.25
2018-03-28T10:54:33.414Z,38.65
2018-03-28T10:57:02.509Z,40.28
2018-03-28T10:59:31.614Z,39.88
2018-03-28T11:02:00.682Z,39.53
2018-03-28T11:04:29.791Z,43.67
2018-03-28T11:07:00.403Z,40.78
2018-03-28T11:09:29.548Z,41.90
2018-03-28T11:11:58.617Z,40.75
2018-03-28T11:14:27.719Z,39.45
2018-03-28T11:16:56.849Z,42.35
2018-03-28T11:19:25.922Z,42.85
2018-03-28T11:21:55.754Z,43.95
2018-03-28T11:24:25.646Z,43.38
2018-03-28T11:26:54.689Z,42.33
2018-03-28T11:29:24.522Z,46.17
2018-03-28T11:31:53.594Z,43.15
2018-03-28T11:34:22.661Z,42.85
2018-03-28T11:36:51.734Z,41.85
2018-03-28T11:39:21.618Z,42.17
2018-03-28T11:41:50.690Z,43.33
2018-03-28T11:44:19.768Z,42.85
2018-03-28T11:46:49.025Z,43.25
2018-03-28T11:49:18.099Z,42.40
2018-03-28T11:51:47.942Z,39.58
2018-03-28T11:54:17.783Z,38.10
2018-03-28T11:56:46.901Z,38.60
2018-03-28T11:59:15.981Z,37.40
2018-03-28T12:01:45.882Z,36.30
2018-03-28T12:04:14.954Z,38.00
2018-03-28T12:06:44.028Z,36.08
2018-03-28T12:09:13.934Z,35.03
2018-03-28T12:11:42.998Z,34.25
2018-03-28T12:14:12.076Z,34.13
2018-03-28T12:16:41.949Z,34.42
2018-03-28T12:19:11.081Z,33.45
2018-03-28T12:21:40.146Z,32.33
2018-03-28T12:24:09.219Z,32.83
2018-03-28T12:26:38.314Z,30.40
2018-03-28T12:29:07.433Z,32.25
2018-03-28T12:31:36.504Z,31.85
2018-03-28T12:34:05.574Z,32.45
2018-03-28T12:36:35.429Z,32.40
2018-03-28T12:39:04.514Z,31.17
2018-03-28T12:41:34.351Z,32.22
2018-03-28T12:44:03.430Z,32.55
2018-03-28T12:46:32.505Z,31.62
2018-03-28T12:49:01.586Z,31.00
2018-03-28T12:51:31.447Z,31.85
2018-03-28T12:54:00.614Z,31.23
2018-03-28T12:56:30.483Z,28.65
2018-03-28T12:58:59.699Z,28.10
2018-03-28T13:01:28.771Z,30.45
2018-03-28T13:03:58.643Z,31.75
2018-03-28T13:06:27.722Z,30.50
2018-03-28T13:08:56.854Z,30.85
2018-03-28T13:11:25.914Z,29.90
2018-03-28T13:13:54.985Z,30.17
2018-03-28T13:16:25.353Z,31.23
2018-03-28T13:18:54.615Z,31.02
2018-03-28T13:21:23.686Z,30.17
2018-03-28T13:23:53.778Z,33.17
2018-03-28T13:26:22.850Z,31.00
2018-03-28T13:28:52.693Z,31.52
2018-03-28T13:31:21.787Z,31.73
2018-03-28T13:33:50.918Z,30.40
2018-03-28T13:36:20.025Z,32.15
2018-03-28T13:38:49.131Z,32.90
2018-03-28T13:41:18.219Z,30.67
2018-03-28T13:43:48.078Z,33.33
2018-03-28T13:46:17.185Z,32.00
2018-03-28T13:48:46.281Z,29.80
2018-03-28T13:51:16.109Z,29.92
2018-03-28T13:53:45.327Z,30.30
2018-03-28T13:56:15.138Z,30.58
2018-03-28T13:58:44.970Z,29.40
2018-03-28T14:01:14.798Z,30.15
2018-03-28T14:03:44.639Z,29.98
2018-03-28T14:06:13.730Z,30.35
2018-03-28T14:08:44.274Z,28.55
2018-03-28T14:11:13.406Z,31.05
2018-03-28T14:13:42.473Z,28.00
2018-03-28T14:16:11.533Z,30.98
2018-03-28T14:18:40.707Z,32.10
2018-03-28T14:21:09.794Z,30.15
2018-03-28T14:23:38.878Z,29.00
2018-03-28T14:26:07.938Z,28.02
2018-03-28T14:28:37.829Z,31.62
2018-03-28T14:31:07.217Z,29.48
2018-03-28T14:33:36.278Z,29.77
2018-03-28T14:36:05.338Z,31.25
2018-03-28T14:38:34.405Z,29.95
2018-03-28T14:41:03.575Z,29.77
2018-03-28T14:43:32.657Z,28.77
2018-03-28T14:46:01.722Z,28.65
2018-03-28T14:48:30.856Z,29.17
2018-03-28T14:51:00.690Z,30.67
2018-03-28T14:53:30.521Z,29.55
2018-03-28T14:56:00.357Z,28.58
2018-03-28T14:58:29.417Z,28.62
2018-03-28T15:00:59.402Z,29.63
2018-03-28T15:03:28.629Z,30.17
2018-03-28T15:05:57.879Z,29.63
2018-03-28T15:08:26.994Z,30.65
2018-03-28T15:10:56.066Z,28.05
2018-03-28T15:13:25.138Z,28.60
2018-03-28T15:15:54.997Z,27.62
2018-03-28T15:18:24.134Z,26.60
2018-03-28T15:20:53.961Z,26.77
2018-03-28T15:23:23.070Z,28.83
2018-03-28T15:25:52.138Z,27.73
2018-03-28T15:28:21.977Z,27.02
2018-03-28T15:30:51.042Z,29.10
2018-03-28T15:33:20.110Z,28.90
2018-03-28T15:35:49.172Z,26.87
2018-03-28T15:38:18.321Z,28.65
2018-03-28T15:40:47.417Z,29.65
2018-03-28T15:43:16.524Z,26.98
2018-03-28T15:45:46.356Z,28.02
2018-03-28T15:48:15.418Z,30.40
2018-03-28T15:50:44.503Z,28.75
2018-03-28T15:53:13.567Z,30.55
2018-03-28T15:55:43.446Z,28.38
2018-03-28T15:58:12.509Z,30.02
2018-03-28T16:00:42.346Z,30.45
2018-03-28T16:03:12.177Z,29.10
2018-03-28T16:05:41.250Z,29.73
2018-03-28T16:08:10.312Z,30.25
2018-03-28T16:10:39.378Z,29.85
2018-03-28T16:13:08.558Z,30.08
2018-03-28T16:15:37.621Z,32.50
2018-03-28T16:18:07.527Z,30.85
2018-03-28T16:20:36.602Z,30.35
2018-03-28T16:23:05.670Z,31.27
2018-03-28T16:25:35.501Z,29.45
2018-03-28T16:28:05.325Z,30.65
2018-03-28T16:30:35.155Z,30.85
2018-03-28T16:33:04.994Z,31.80
2018-03-28T16:35:34.134Z,35.13
2018-03-28T16:38:03.199Z,30.05
2018-03-28T16:40:33.030Z,33.28
2018-03-28T16:43:02.865Z,33.13
2018-03-28T16:45:32.010Z,34.10
2018-03-28T16:48:01.885Z,33.95
2018-03-28T16:50:31.761Z,33.25
2018-03-28T16:53:00.830Z,35.05
2018-03-28T16:55:30.674Z,35.30
2018-03-28T16:57:59.761Z,38.45
2018-03-28T17:00:29.633Z,36.50
2018-03-28T17:02:58.718Z,31.70
2018-03-28T17:05:27.786Z,34.58
2018-03-28T17:07:56.851Z,33.33
2018-03-28T17:10:25.918Z,35.03
2018-03-28T17:12:55.781Z,35.70
2018-03-28T17:15:24.861Z,33.03
2018-03-28T17:17:54.749Z,35.35
2018-03-28T17:20:24.594Z,36.75
2018-03-28T17:22:53.723Z,43.08
2018-03-28T17:25:22.866Z,38.80
2018-03-28T17:27:52.119Z,37.85
2018-03-28T17:30:21.200Z,49.53
2018-03-28T17:32:50.323Z,37.40
2018-03-28T17:35:19.446Z,35.97
2018-03-28T17:37:48.521Z,36.55
2018-03-28T17:40:17.646Z,37.78
2018-03-28T17:42:46.714Z,37.83
2018-03-28T17:45:15.818Z,37.35
2018-03-28T17:47:45.670Z,36.03
2018-03-28T17:50:14.781Z,35.97
2018-03-28T17:52:44.363Z,36.80
2018-03-28T17:55:13.432Z,38.00
2018-03-28T17:57:42.520Z,38.53
2018-03-28T18:00:12.356Z,36.60
2018-03-28T18:02:41.434Z,38.45
2018-03-28T18:05:10.501Z,37.50
2018-03-28T18:07:39.582Z,36.85
2018-03-28T18:10:08.678Z,35.95
2018-03-28T18:12:38.538Z,36.88
2018-03-28T18:15:07.602Z,38.83
2018-03-28T18:17:36.666Z,38.80
2018-03-28T18:20:05.729Z,37.75
2018-03-28T18:22:35.572Z,40.53
2018-03-28T18:25:04.651Z,36.67
2018-03-28T18:27:33.765Z,37.83
2018-03-28T18:30:02.818Z,40.20
2018-03-28T18:32:31.913Z,59.42
2018-03-28T18:35:01.773Z,39.22
2018-03-28T18:37:30.840Z,39.97
2018-03-28T18:40:00.744Z,38.20
2018-03-28T18:42:30.788Z,39.17
2018-03-28T18:44:59.892Z,39.65
2018-03-28T18:47:28.954Z,39.85
2018-03-28T18:49:58.028Z,40.00
2018-03-28T18:52:27.872Z,44.08
2018-03-28T18:54:56.937Z,43.35
2018-03-28T18:57:26.069Z,41.50
2018-03-28T18:59:55.148Z,41.90
2018-03-28T19:02:24.279Z,42.95
2018-03-28T19:04:53.351Z,41.45
2018-03-28T19:07:22.456Z,41.28
2018-03-28T19:09:51.535Z,42.53
2018-03-28T19:12:21.417Z,42.92
2018-03-28T19:14:50.490Z,42.80
2018-03-28T19:17:19.566Z,42.97
2018-03-28T19:19:48.642Z,44.60
2018-03-28T19:22:17.716Z,44.08
2018-03-28T19:24:46.824Z,45.50
2018-03-28T19:27:15.900Z,44.90
2018-03-28T19:29:44.978Z,44.00
2018-03-28T19:32:14.047Z,45.83
2018-03-28T19:34:43.122Z,44.97
2018-03-28T19:37:12.255Z,46.42
2018-03-28T19:39:42.099Z,46.20
2018-03-28T19:42:11.175Z,48.33
2018-03-28T19:44:40.282Z,46.05
2018-03-28T19:47:09.509Z,46.25
2018-03-28T19:49:39.356Z,48.25
2018-03-28T19:52:09.279Z,48.53
2018-03-28T19:54:39.123Z,49.28
2018-03-28T19:57:08.201Z,48.55
2018-03-28T19:59:37.967Z,48.25
2018-03-28T20:02:07.078Z,48.87
2018-03-28T20:04:36.217Z,48.00
2018-03-28T20:07:05.295Z,48.87
2018-03-28T20:09:34.430Z,48.22
2018-03-28T20:12:03.511Z,51.10
2018-03-28T20:14:32.671Z,48.90
2018-03-28T20:17:01.746Z,50.63
2018-03-28T20:19:30.824Z,47.40
2018-03-28T20:22:00.663Z,53.72
2018-03-28T20:24:29.738Z,50.90
2018-03-28T20:26:58.820Z,50.08
2018-03-28T20:29:27.898Z,48.20
2018-03-28T20:31:56.970Z,51.05
2018-03-28T20:34:26.045Z,49.15
2018-03-28T20:36:55.181Z,51.40
2018-03-28T20:39:24.319Z,50.33
2018-03-28T20:41:54.162Z,52.92
2018-03-28T20:44:23.289Z,52.15
2018-03-28T20:46:53.094Z,50.55
2018-03-28T20:49:22.930Z,50.55
2018-03-28T20:51:52.003Z,51.35
2018-03-28T20:54:21.109Z,51.90
2018-03-28T20:56:50.181Z,50.85
2018-03-28T20:59:19.394Z,47.55
2018-03-28T21:01:48.475Z,47.28
2018-03-28T21:04:17.598Z,49.40
2018-03-28T21:06:46.709Z,48.65
2018-03-28T21:09:15.782Z,51.33
2018-03-28T21:11:45.671Z,47.92
2018-03-28T21:14:14.769Z,49.92
2018-03-28T21:16:43.841Z,47.85
2018-03-28T21:19:13.682Z,49.60
2018-03-28T21:21:43.550Z,48.72
2018-03-28T21:24:12.614Z,49.17
2018-03-28T21:26:42.582Z,50.38
2018-03-28T21:29:11.658Z,48.25
2018-03-28T21:31:41.493Z,49.30
2018-03-28T21:34:11.326Z,45.60
2018-03-28T21:36:40.385Z,44.10
2018-03-28T21:39:09.621Z,45.72
2018-03-28T21:41:38.682Z,42.78
2018-03-28T21:44:07.786Z,44.50
2018-03-28T21:46:36.936Z,46.15
2018-03-28T21:49:06.106Z,40.20
2018-03-28T21:51:35.164Z,42.25
2018-03-28T21:54:04.225Z,40.90
2018-03-28T21:56:33.289Z,41.80
2018-03-28T21:59:02.358Z,42.75
2018-03-28T22:01:31.421Z,41.67
2018-03-28T22:04:01.250Z,40.10
2018-03-28T22:06:31.087Z,40.85
2018-03-28T22:09:00.949Z,38.83
2018-03-28T22:11:30.009Z,37.97
2018-03-28T22:13:59.069Z,38.08
2018-03-28T22:16:28.134Z,35.78
2018-03-28T22:18:58.041Z,37.05
2018-03-28T22:21:27.115Z,35.53
2018-03-28T22:23:56.222Z,35.22
2018-03-28T22:26:25.314Z,36.42
2018-03-28T22:28:54.372Z,35.88
2018-03-28T22:31:23.442Z,38.40
2018-03-28T22:36:27.795Z,35.60
2018-03-28T22:38:56.869Z,36.95
2018-03-28T22:41:26.148Z,36.60
2018-03-28T22:43:55.354Z,35.80
2018-03-28T22:46:24.422Z,34.95
2018-03-28T22:48:54.253Z,33.67
2018-03-28T22:51:23.382Z,36.75
2018-03-28T22:53:52.446Z,36.20
2018-03-28T22:56:21.509Z,35.65
2018-03-28T22:58:50.574Z,36.25
2018-03-28T23:01:19.638Z,35.45
2018-03-28T23:03:48.734Z,35.90
2018-03-28T23:06:18.109Z,36.55
2018-03-28T23:08:47.173Z,36.63
2018-03-28T23:11:16.278Z,36.78
2018-03-28T23:13:45.380Z,35.70
2018-03-28T23:16:14.479Z,34.40
2018-03-28T23:18:43.576Z,36.63
2018-03-28T23:21:13.597Z,36.70
2018-03-28T23:23:43.515Z,34.72
2018-03-28T23:26:12.574Z,35.50
2018-03-28T23:28:41.643Z,37.17
2018-03-28T23:31:10.764Z,34.80
2018-03-28T23:33:40.631Z,36.45
2018-03-28T23:36:09.741Z,36.42
2018-03-28T23:38:38.838Z,36.08
2018-03-28T23:41:07.970Z,35.70
2018-03-28T23:43:37.038Z,36.85
2018-03-28T23:46:06.926Z,35.50
2018-03-28T23:48:35.986Z,36.92
2018-03-28T23:51:05.814Z,36.95
2018-03-28T23:53:35.650Z,35.78
2018-03-28T23:56:04.709Z,34.75
2018-03-28T23:58:33.769Z,37.00
